Seaspan Chiwan — VRBH3 — position and weather

sailwx.info

Track history (hours):
 
Tides and Currents Weather Stations Pressure Air Temp Water Temp Dewpoint Dewpoint Depression Visibility Wind Speed Wind Dir Waves Ship Positions

Seaspan Chiwan

Last reported at 2016-May-14 09:33 UTC. Time now 2016-May-24 08:05 UTC.
Position N 32°23' W 117°40'.
Warning: this ship's position is 9 days out of date.

Length 260 m; draft 10.8 m.

Type: Cargo ship. MMSI: 477014500.

Date/timePositionNaut miles runAvg speedWind from/ knotsBaromVisibWave heightAir tempDewpointWater temp
2016-May-14 09:33N 32°23' W 117°40'1313.4
2016-May-14 08:33N 32°35' W 117°45'1413.9
2016-May-14 07:32N 32°48' W 117°51'1414.8
2016-May-14 06:33N 33°01' W 117°59'1211.9
2016-May-14 05:34N 33°12' W 118°04'1211.6
2016-May-14 04:33N 33°23' W 118°08'1211.6
2016-May-14 03:33N 33°34' W 118°13'10 9.6
2016-May-14 02:33N 33°44' W 118°16'1 1.0
2016-May-14 01:33N 33°44' W 118°15'0 0.0
2016-May-14 00:33N 33°44' W 118°15'0 0.0
2016-May-13 23:33N 33°44' W 118°15'0 0.0
2016-May-13 22:34N 33°44' W 118°15'0 0.0
2016-May-13 21:29N 33°44' W 118°15'0 0.0
2016-May-13 20:28N 33°44' W 118°15'0 0.0
2016-May-13 19:27N 33°44' W 118°15'0 0.0
2016-May-13 18:33N 33°44' W 118°15'0 0.0
2016-May-13 17:33N 33°44' W 118°15'0 0.0
2016-May-13 16:33N 33°44' W 118°15'0 0.0
2016-May-13 15:33N 33°44' W 118°15'0 0.0
2016-May-13 14:33N 33°44' W 118°15'0 0.0
2016-May-13 13:33N 33°44' W 118°15'0 0.0
2016-May-13 12:33N 33°44' W 118°15'5 5.3
2016-May-13 11:33N 33°39' W 118°14'8 7.5
2016-May-13 10:33N 33°37' W 118°23'9 9.4
2016-May-13 09:33N 33°42' W 118°32'1010.2
2016-May-13 08:33N 33°47' W 118°43'1111.0
2016-May-13 07:33N 33°52' W 118°55'1111.2
2016-May-13 06:33N 33°58' W 119°06'1211.3
2016-May-13 05:31N 34°03' W 119°19'1111.8
2016-May-13 04:33N 34°06' W 119°32'1212.0
2016-May-13 03:33N 34°09' W 119°46'1212.0
2016-May-13 02:34N 34°12' W 120°00'1211.6
2016-May-13 01:34N 34°16' W 120°14'1211.7
2016-May-13 00:33N 34°18' W 120°28'8710.9
2016-May-12 16:33N 35°21' W 121°41'1111.5
2016-May-12 15:33N 35°30' W 121°49'4711.2
2016-May-12 11:22N 36°12' W 122°16'2311.0
2016-May-12 09:18N 36°33' W 122°26'810.9
2016-May-12 08:34N 36°40' W 122°30'1211.7
2016-May-12 07:33N 36°51' W 122°35'1211.5
2016-May-12 06:33N 37°02' W 122°40'1111.4
2016-May-12 05:34N 37°13' W 122°44'1211.9
2016-May-12 04:33N 37°25' W 122°44'1211.6
2016-May-12 03:33N 37°37' W 122°44'1010.0
2016-May-12 02:34N 37°46' W 122°39'1313.2
2016-May-12 01:34N 37°48' W 122°22'3 3.0
2016-May-12 00:33N 37°48' W 122°19'0 0.0
2016-May-11 23:33N 37°48' W 122°19'0 0.0
2016-May-11 22:33N 37°48' W 122°19'0 0.0
2016-May-11 21:33N 37°48' W 122°19'0 0.0
2016-May-11 20:33N 37°48' W 122°19'0 0.0
2016-May-11 19:33N 37°48' W 122°19'0 0.0
2016-May-11 18:33N 37°48' W 122°19'0 0.0
2016-May-11 17:33N 37°48' W 122°19'0 0.0
2016-May-11 16:30N 37°48' W 122°19'0 0.0
2016-May-11 15:33N 37°48' W 122°19'0 0.0
2016-May-11 14:33N 37°48' W 122°19'0 0.0
2016-May-11 13:33N 37°48' W 122°19'0 0.0
2016-May-11 12:30N 37°48' W 122°19'0 0.0
2016-May-11 11:33N 37°48' W 122°19'0 0.0
2016-May-11 10:33N 37°48' W 122°19'0 0.0
2016-May-11 09:33N 37°48' W 122°19'0 0.0
2016-May-11 08:30N 37°48' W 122°19'0 0.0
2016-May-11 07:33N 37°48' W 122°19'0 0.0
2016-May-11 06:33N 37°48' W 122°19'0 0.0
2016-May-11 05:33N 37°48' W 122°19'0 0.0
2016-May-11 04:33N 37°48' W 122°19'0 0.0
2016-May-11 03:33N 37°48' W 122°19'0 0.0
2016-May-11 02:33N 37°48' W 122°19'0 0.0
2016-May-11 01:33N 37°48' W 122°19'1 1.1
2016-May-11 00:33N 37°48' W 122°17'6 6.2
2016-May-10 23:33N 37°49' W 122°25'1514.9
2016-May-10 22:33N 37°46' W 122°43'10 9.7
2016-May-10 21:33N 37°50' W 122°54'1212.0
2016-May-10 20:33N 37°56' W 123°08'1111.4
2016-May-10 19:33N 38°04' W 123°18'1212.2
2016-May-10 18:33N 38°14' W 123°27'1312.7
2016-May-10 17:33N 38°25' W 123°35'1211.9
2016-May-10 16:33N 38°35' W 123°43'1110.8
2016-May-10 15:33N 38°45' W 123°50'1110.9
2016-May-10 14:33N 38°54' W 123°57'40211.7
2016-May-09 04:10N 45°33' W 125°01'712.2
2016-May-09 03:33N 45°41' W 125°01'1211.9
2016-May-09 02:33N 45°53' W 125°01'1212.1
2016-May-09 01:33N 46°05' W 125°01'1212.0
2016-May-09 00:33N 46°17' W 125°03'1211.8
2016-May-08 23:34N 46°28' W 125°06'1211.6
2016-May-08 22:34N 46°40' W 125°09'1211.9
2016-May-08 21:33N 46°52' W 125°12'1211.9
2016-May-08 20:33N 47°03' W 125°14'1511.5
2016-May-08 19:14N 47°18' W 125°17'3311.4
2016-May-08 16:18N 47°51' W 125°24'2110.7
2016-May-08 14:23N 48°11' W 125°16'911.4
2016-May-08 13:33N 48°20' W 125°10'1211.5
2016-May-08 12:30N 48°30' W 125°01'1010.5
2016-May-08 11:34N 48°31' W 124°47'30 9.5
2016-May-08 08:26N 48°20' W 124°05'1010.2
2016-May-08 07:27N 48°17' W 123°50'1111.9
2016-May-08 06:34N 48°16' W 123°35'9 9.4
2016-May-08 05:34N 48°23' W 123°25'1010.0
2016-May-08 04:33N 48°28' W 123°12'1717.1
2016-May-08 03:33N 48°45' W 123°08'1414.5
2016-May-08 02:33N 48°58' W 123°15'9 9.2
2016-May-08 01:34N 49°07' W 123°11'1111.1
2016-May-08 00:33N 49°11' W 122°55'1 0.6
2016-May-07 23:33N 49°11' W 122°55'0 0.0
2016-May-07 22:33N 49°11' W 122°55'0 0.0
2016-May-07 21:33N 49°11' W 122°55'0 0.0
2016-May-07 20:33N 49°11' W 122°55'0 0.0
2016-May-07 19:33N 49°11' W 122°55'0 0.0
2016-May-07 18:33N 49°11' W 122°55'0 0.0
2016-May-07 17:33N 49°11' W 122°55'0 0.0
2016-May-07 16:33N 49°11' W 122°55'0 0.0
2016-May-07 15:33N 49°11' W 122°55'0 0.0
2016-May-07 14:33N 49°11' W 122°55'0 0.0
2016-May-07 13:33N 49°11' W 122°55'0 0.0
2016-May-07 12:33N 49°11' W 122°55'0 0.0
2016-May-07 11:31N 49°11' W 122°55'0 0.0
2016-May-07 10:31N 49°11' W 122°55'0 0.0
2016-May-07 09:33N 49°11' W 122°55'0 0.0
2016-May-07 08:33N 49°11' W 122°55'0 0.0
2016-May-07 07:33N 49°11' W 122°55'0 0.0
2016-May-07 06:33N 49°11' W 122°55'0 0.0
2016-May-07 05:33N 49°11' W 122°55'0 0.0
2016-May-07 04:33N 49°11' W 122°55'0 0.0
2016-May-07 03:33N 49°11' W 122°55'0 0.0
2016-May-07 02:33N 49°11' W 122°55'0 0.0
2016-May-07 01:33N 49°11' W 122°55'0 0.0
2016-May-07 00:34N 49°11' W 122°55'0 0.0
2016-May-06 23:33N 49°11' W 122°55'0 0.3
2016-May-06 22:33N 49°11' W 122°55'9 8.7
2016-May-06 21:34N 49°07' W 123°07'1010.3
2016-May-06 20:33N 49°03' W 123°22'1413.8
2016-May-06 19:34N 48°55' W 123°05'1413.7
2016-May-06 18:34N 48°42' W 123°14'1716.8
2016-May-06 17:33N 48°26' W 123°10'1212.2
2016-May-06 16:33N 48°18' W 123°25'10 9.7
2016-May-06 15:33N 48°09' W 123°22'1918.9
2016-May-06 14:33N 48°12' W 122°54'2020.4
2016-May-06 13:33N 47°58' W 122°33'1818.5
2016-May-06 12:33N 47°39' W 122°27'1615.1
2016-May-06 11:32N 47°24' W 122°22'8 8.5
2016-May-06 10:34N 47°16' W 122°24'1 0.0
2016-May-04 23:31N 47°17' W 122°25'4 4.3
2016-May-04 22:33N 47°21' W 122°24'7 7.1
2016-May-04 21:33N 47°28' W 122°25'2019.8
2016-May-04 20:33N 47°47' W 122°27'2019.9
2016-May-04 19:33N 48°06' W 122°40'2019.8
2016-May-04 18:33N 48°12' W 123°08'1313.2
2016-May-04 17:33N 48°11' W 123°28'1211.8
2016-May-04 16:33N 48°13' W 123°45'1312.7
2016-May-04 15:33N 48°16' W 124°04'1413.7
2016-May-04 14:32N 48°22' W 124°23'1713.0
2016-May-04 13:13N 48°29' W 124°47'1012.6
2016-May-04 12:27N 48°28' W 125°01'1212.6
2016-May-04 11:31N 48°17' W 125°09'  
Track history (hours):
 
Tides and Currents Weather Stations Pressure Air Temp Water Temp Dewpoint Dewpoint Depression Visibility Wind Speed Wind Dir Waves Ship Positions

Seaspan Chiwan

Last reported at 2016-May-14 09:33 UTC. Time now 2016-May-24 08:05 UTC.
Position N 32°23' W 117°40'.
Warning: this ship's position is 9 days out of date.

Length 260 m; draft 10.8 m.

Type: Cargo ship. MMSI: 477014500.

Date/timePositionNaut miles runAvg speedWind from/ knotsBaromVisibWave heightAir tempDewpointWater temp
2016-May-14 09:33N 32°23' W 117°40'1313.4
2016-May-14 08:33N 32°35' W 117°45'1413.9
2016-May-14 07:32N 32°48' W 117°51'1414.8
2016-May-14 06:33N 33°01' W 117°59'1211.9
2016-May-14 05:34N 33°12' W 118°04'1211.6
2016-May-14 04:33N 33°23' W 118°08'1211.6
2016-May-14 03:33N 33°34' W 118°13'10 9.6
2016-May-14 02:33N 33°44' W 118°16'1 1.0
2016-May-14 01:33N 33°44' W 118°15'0 0.0
2016-May-14 00:33N 33°44' W 118°15'0 0.0
2016-May-13 23:33N 33°44' W 118°15'0 0.0
2016-May-13 22:34N 33°44' W 118°15'0 0.0
2016-May-13 21:29N 33°44' W 118°15'0 0.0
2016-May-13 20:28N 33°44' W 118°15'0 0.0
2016-May-13 19:27N 33°44' W 118°15'0 0.0
2016-May-13 18:33N 33°44' W 118°15'0 0.0
2016-May-13 17:33N 33°44' W 118°15'0 0.0
2016-May-13 16:33N 33°44' W 118°15'0 0.0
2016-May-13 15:33N 33°44' W 118°15'0 0.0
2016-May-13 14:33N 33°44' W 118°15'0 0.0
2016-May-13 13:33N 33°44' W 118°15'0 0.0
2016-May-13 12:33N 33°44' W 118°15'5 5.3
2016-May-13 11:33N 33°39' W 118°14'8 7.5
2016-May-13 10:33N 33°37' W 118°23'9 9.4
2016-May-13 09:33N 33°42' W 118°32'1010.2
2016-May-13 08:33N 33°47' W 118°43'1111.0
2016-May-13 07:33N 33°52' W 118°55'1111.2
2016-May-13 06:33N 33°58' W 119°06'1211.3
2016-May-13 05:31N 34°03' W 119°19'1111.8
2016-May-13 04:33N 34°06' W 119°32'1212.0
2016-May-13 03:33N 34°09' W 119°46'1212.0
2016-May-13 02:34N 34°12' W 120°00'1211.6
2016-May-13 01:34N 34°16' W 120°14'1211.7
2016-May-13 00:33N 34°18' W 120°28'8710.9
2016-May-12 16:33N 35°21' W 121°41'1111.5
2016-May-12 15:33N 35°30' W 121°49'4711.2
2016-May-12 11:22N 36°12' W 122°16'2311.0
2016-May-12 09:18N 36°33' W 122°26'810.9
2016-May-12 08:34N 36°40' W 122°30'1211.7
2016-May-12 07:33N 36°51' W 122°35'1211.5
2016-May-12 06:33N 37°02' W 122°40'1111.4
2016-May-12 05:34N 37°13' W 122°44'1211.9
2016-May-12 04:33N 37°25' W 122°44'1211.6
2016-May-12 03:33N 37°37' W 122°44'1010.0
2016-May-12 02:34N 37°46' W 122°39'1313.2
2016-May-12 01:34N 37°48' W 122°22'3 3.0
2016-May-12 00:33N 37°48' W 122°19'0 0.0
2016-May-11 23:33N 37°48' W 122°19'0 0.0
2016-May-11 22:33N 37°48' W 122°19'0 0.0
2016-May-11 21:33N 37°48' W 122°19'0 0.0
2016-May-11 20:33N 37°48' W 122°19'0 0.0
2016-May-11 19:33N 37°48' W 122°19'0 0.0
2016-May-11 18:33N 37°48' W 122°19'0 0.0
2016-May-11 17:33N 37°48' W 122°19'0 0.0
2016-May-11 16:30N 37°48' W 122°19'0 0.0
2016-May-11 15:33N 37°48' W 122°19'0 0.0
2016-May-11 14:33N 37°48' W 122°19'0 0.0
2016-May-11 13:33N 37°48' W 122°19'0 0.0
2016-May-11 12:30N 37°48' W 122°19'0 0.0
2016-May-11 11:33N 37°48' W 122°19'0 0.0
2016-May-11 10:33N 37°48' W 122°19'0 0.0
2016-May-11 09:33N 37°48' W 122°19'0 0.0
2016-May-11 08:30N 37°48' W 122°19'0 0.0
2016-May-11 07:33N 37°48' W 122°19'0 0.0
2016-May-11 06:33N 37°48' W 122°19'0 0.0
2016-May-11 05:33N 37°48' W 122°19'0 0.0
2016-May-11 04:33N 37°48' W 122°19'0 0.0
2016-May-11 03:33N 37°48' W 122°19'0 0.0
2016-May-11 02:33N 37°48' W 122°19'0 0.0
2016-May-11 01:33N 37°48' W 122°19'1 1.1
2016-May-11 00:33N 37°48' W 122°17'6 6.2
2016-May-10 23:33N 37°49' W 122°25'1514.9
2016-May-10 22:33N 37°46' W 122°43'10 9.7
2016-May-10 21:33N 37°50' W 122°54'1212.0
2016-May-10 20:33N 37°56' W 123°08'1111.4
2016-May-10 19:33N 38°04' W 123°18'1212.2
2016-May-10 18:33N 38°14' W 123°27'1312.7
2016-May-10 17:33N 38°25' W 123°35'1211.9
2016-May-10 16:33N 38°35' W 123°43'1110.8
2016-May-10 15:33N 38°45' W 123°50'1110.9
2016-May-10 14:33N 38°54' W 123°57'40211.7
2016-May-09 04:10N 45°33' W 125°01'712.2
2016-May-09 03:33N 45°41' W 125°01'1211.9
2016-May-09 02:33N 45°53' W 125°01'1212.1
2016-May-09 01:33N 46°05' W 125°01'1212.0
2016-May-09 00:33N 46°17' W 125°03'1211.8
2016-May-08 23:34N 46°28' W 125°06'1211.6
2016-May-08 22:34N 46°40' W 125°09'1211.9
2016-May-08 21:33N 46°52' W 125°12'1211.9
2016-May-08 20:33N 47°03' W 125°14'1511.5
2016-May-08 19:14N 47°18' W 125°17'3311.4
2016-May-08 16:18N 47°51' W 125°24'2110.7
2016-May-08 14:23N 48°11' W 125°16'911.4
2016-May-08 13:33N 48°20' W 125°10'1211.5
2016-May-08 12:30N 48°30' W 125°01'1010.5
2016-May-08 11:34N 48°31' W 124°47'30 9.5
2016-May-08 08:26N 48°20' W 124°05'1010.2
2016-May-08 07:27N 48°17' W 123°50'1111.9
2016-May-08 06:34N 48°16' W 123°35'9 9.4
2016-May-08 05:34N 48°23' W 123°25'1010.0
2016-May-08 04:33N 48°28' W 123°12'1717.1
2016-May-08 03:33N 48°45' W 123°08'1414.5
2016-May-08 02:33N 48°58' W 123°15'9 9.2
2016-May-08 01:34N 49°07' W 123°11'1111.1
2016-May-08 00:33N 49°11' W 122°55'1 0.6
2016-May-07 23:33N 49°11' W 122°55'0 0.0
2016-May-07 22:33N 49°11' W 122°55'0 0.0
2016-May-07 21:33N 49°11' W 122°55'0 0.0
2016-May-07 20:33N 49°11' W 122°55'0 0.0
2016-May-07 19:33N 49°11' W 122°55'0 0.0
2016-May-07 18:33N 49°11' W 122°55'0 0.0
2016-May-07 17:33N 49°11' W 122°55'0 0.0
2016-May-07 16:33N 49°11' W 122°55'0 0.0
2016-May-07 15:33N 49°11' W 122°55'0 0.0
2016-May-07 14:33N 49°11' W 122°55'0 0.0
2016-May-07 13:33N 49°11' W 122°55'0 0.0
2016-May-07 12:33N 49°11' W 122°55'0 0.0
2016-May-07 11:31N 49°11' W 122°55'0 0.0
2016-May-07 10:31N 49°11' W 122°55'0 0.0
2016-May-07 09:33N 49°11' W 122°55'0 0.0
2016-May-07 08:33N 49°11' W 122°55'0 0.0
2016-May-07 07:33N 49°11' W 122°55'0 0.0
2016-May-07 06:33N 49°11' W 122°55'0 0.0
2016-May-07 05:33N 49°11' W 122°55'0 0.0
2016-May-07 04:33N 49°11' W 122°55'0 0.0
2016-May-07 03:33N 49°11' W 122°55'0 0.0
2016-May-07 02:33N 49°11' W 122°55'0 0.0
2016-May-07 01:33N 49°11' W 122°55'0 0.0
2016-May-07 00:34N 49°11' W 122°55'0 0.0
2016-May-06 23:33N 49°11' W 122°55'0 0.3
2016-May-06 22:33N 49°11' W 122°55'9 8.7
2016-May-06 21:34N 49°07' W 123°07'1010.3
2016-May-06 20:33N 49°03' W 123°22'1413.8
2016-May-06 19:34N 48°55' W 123°05'1413.7
2016-May-06 18:34N 48°42' W 123°14'1716.8
2016-May-06 17:33N 48°26' W 123°10'1212.2
2016-May-06 16:33N 48°18' W 123°25'10 9.7
2016-May-06 15:33N 48°09' W 123°22'1918.9
2016-May-06 14:33N 48°12' W 122°54'2020.4
2016-May-06 13:33N 47°58' W 122°33'1818.5
2016-May-06 12:33N 47°39' W 122°27'1615.1
2016-May-06 11:32N 47°24' W 122°22'8 8.5
2016-May-06 10:34N 47°16' W 122°24'1 0.0
2016-May-04 23:31N 47°17' W 122°25'4 4.3
2016-May-04 22:33N 47°21' W 122°24'7 7.1
2016-May-04 21:33N 47°28' W 122°25'2019.8
2016-May-04 20:33N 47°47' W 122°27'2019.9
2016-May-04 19:33N 48°06' W 122°40'2019.8
2016-May-04 18:33N 48°12' W 123°08'1313.2
2016-May-04 17:33N 48°11' W 123°28'1211.8
2016-May-04 16:33N 48°13' W 123°45'1312.7
2016-May-04 15:33N 48°16' W 124°04'1413.7
2016-May-04 14:32N 48°22' W 124°23'1713.0
2016-May-04 13:13N 48°29' W 124°47'1012.6
2016-May-04 12:27N 48°28' W 125°01'1212.6
2016-May-04 11:31N 48°17' W 125°09'  

Dump ship's entire track history